createdAt,value
2017-06-09T00:00:02.451Z,1001.32
2017-06-09T00:10:02.593Z,1001.06
2017-06-09T00:20:02.902Z,1000.84
2017-06-09T00:30:02.383Z,1000.74
2017-06-09T00:40:02.872Z,1000.68
2017-06-09T00:50:03.202Z,1000.48
2017-06-09T01:00:02.689Z,1000.39
2017-06-09T01:10:03.281Z,1000.39
2017-06-09T01:20:02.965Z,1000.26
2017-06-09T01:30:02.412Z,1000.34
2017-06-09T01:40:02.953Z,1000.41
2017-06-09T01:50:02.846Z,1000.34
2017-06-09T02:00:03.320Z,1000.27
2017-06-09T02:10:02.397Z,1000.44
2017-06-09T02:20:03.185Z,1000.79
2017-06-09T02:30:02.591Z,1000.63
2017-06-09T02:40:03.066Z,1000.47
2017-06-09T02:50:02.992Z,1000.56
2017-06-09T03:00:02.479Z,1000.46
2017-06-09T03:10:03.029Z,1000.42
2017-06-09T03:20:02.831Z,1000.18
2017-06-09T03:30:03.272Z,1000.13
2017-06-09T03:40:02.789Z,1000.22
2017-06-09T03:50:03.088Z,1000.02
2017-06-09T04:00:02.557Z,1000.04
2017-06-09T04:10:03.084Z,999.82
2017-06-09T04:20:02.666Z,999.86
2017-06-09T04:30:03.120Z,1000
2017-06-09T04:40:02.957Z,999.91
2017-06-09T04:50:03.289Z,999.93
2017-06-09T05:00:02.763Z,999.96
2017-06-09T05:10:02.896Z,999.89
2017-06-09T05:20:02.673Z,999.66
2017-06-09T05:30:03.090Z,999.45
2017-06-09T05:40:02.598Z,999.37
2017-06-09T05:50:03.123Z,999.19
2017-06-09T06:00:02.609Z,999.2
2017-06-09T06:10:03.094Z,999.17
2017-06-09T06:20:02.906Z,999.19
2017-06-09T06:30:03.342Z,999.15
2017-06-09T06:40:02.911Z,999.12
2017-06-09T06:50:02.429Z,998.99
2017-06-09T07:00:02.899Z,999.03
2017-06-09T07:10:03.030Z,998.91
2017-06-09T07:20:03.042Z,998.83
2017-06-09T07:30:02.497Z,998.68
2017-06-09T07:40:02.968Z,998.58
2017-06-09T07:50:02.859Z,998.33
2017-06-09T08:00:03.351Z,998.38
2017-06-09T08:10:03.319Z,998.46
2017-06-09T08:20:02.779Z,998.63
2017-06-09T08:30:03.261Z,998.44
2017-06-09T08:40:02.782Z,998.41
2017-06-09T08:50:02.451Z,998.22
2017-06-09T09:00:02.957Z,997.88
2017-06-09T09:10:02.923Z,997.66
2017-06-09T09:20:02.607Z,997.62
2017-06-09T09:30:03.059Z,997.77
2017-06-09T09:40:02.573Z,997.47
2017-06-09T09:50:03.009Z,997.51
2017-06-09T10:00:02.513Z,997.53
2017-06-09T10:10:02.821Z,997.37
2017-06-09T10:20:02.387Z,997.27
2017-06-09T10:30:02.862Z,997.01
2017-06-09T10:40:02.686Z,997.03
2017-06-09T10:50:03.066Z,997.02
2017-06-09T11:00:02.525Z,996.97
2017-06-09T11:10:03.039Z,997.07
2017-06-09T11:20:03.301Z,997.14
2017-06-09T11:30:02.784Z,997
2017-06-09T11:40:03.304Z,996.99
2017-06-09T11:50:03.385Z,997.06
2017-06-09T12:00:02.893Z,997.04
2017-06-09T12:10:02.581Z,997.17
2017-06-09T12:20:03.040Z,997.38
2017-06-09T12:30:02.513Z,997.41
2017-06-09T12:40:03.013Z,997.44
2017-06-09T12:50:02.987Z,997.47
2017-06-09T13:00:02.481Z,997.51
2017-06-09T13:10:02.954Z,998.17
2017-06-09T13:20:02.635Z,998.82
2017-06-09T13:30:03.102Z,1000.04
2017-06-09T13:40:02.830Z,1000.32
2017-06-09T13:50:02.502Z,1001.25
2017-06-09T14:00:02.990Z,1000.63
2017-06-09T14:10:02.841Z,1000.39
2017-06-09T14:20:02.547Z,1000.94
2017-06-09T14:30:03.009Z,1001
2017-06-09T14:40:02.532Z,1000.85
2017-06-09T14:50:03.340Z,1000.83
2017-06-09T15:00:02.783Z,1000.92
2017-06-09T15:10:03.306Z,1001.15
2017-06-09T15:20:02.728Z,1001.15
2017-06-09T15:30:03.184Z,1001.01
2017-06-09T15:40:03.332Z,1000.97
2017-06-09T15:50:02.643Z,1001.1
2017-06-09T16:00:03.070Z,-1
2017-06-09T16:10:02.541Z,1001.18
2017-06-09T16:40:02.824Z,-1
2017-06-09T16:50:02.674Z,-1
2017-06-09T17:00:03.070Z,-1
2017-06-09T17:10:03.186Z,-1
2017-06-09T17:20:02.919Z,-1
2017-06-09T17:30:03.301Z,-1
2017-06-09T17:40:03.169Z,1001.28
2017-06-09T17:50:03.212Z,1001.45
2017-06-09T18:00:02.656Z,1001.48
2017-06-09T18:10:02.421Z,-1
2017-06-09T18:20:02.504Z,-1
2017-06-09T18:30:02.913Z,-1
2017-06-09T18:40:02.417Z,-1
2017-06-09T18:50:03.218Z,-1
2017-06-09T19:00:02.621Z,-1
2017-06-09T19:10:03.132Z,-1
2017-06-09T19:20:02.471Z,-1
2017-06-09T19:30:02.934Z,1002.73
2017-06-09T19:40:02.530Z,1002.84
2017-06-09T19:50:03.216Z,1002.92
2017-06-09T20:00:02.648Z,1003.14
2017-06-09T20:10:03.159Z,1003.11
2017-06-09T20:20:02.829Z,1003.15
2017-06-09T20:30:03.301Z,1003.24
2017-06-09T20:40:02.929Z,1003.36
2017-06-09T20:50:02.874Z,1003.46
2017-06-09T21:00:03.349Z,1003.41
2017-06-09T21:10:02.579Z,1003.55
2017-06-09T21:20:03.183Z,1003.68
2017-06-09T21:30:02.640Z,1003.69
2017-06-09T21:40:03.120Z,1003.82
2017-06-09T21:50:03.027Z,1003.96
2017-06-09T22:00:02.538Z,1004.07
2017-06-09T22:10:03.098Z,1004.11
2017-06-09T22:20:02.604Z,1004.11
2017-06-09T22:30:03.083Z,1004.33
2017-06-09T22:40:02.643Z,1004.35
2017-06-09T22:50:02.628Z,1004.51
2017-06-09T23:00:03.113Z,1004.52
2017-06-09T23:10:02.568Z,1004.45
2017-06-09T23:20:02.442Z,1004.65
2017-06-09T23:30:02.891Z,1004.76
2017-06-09T23:40:02.654Z,1004.76
2017-06-09T23:50:02.831Z,1004.71
